createdAt,value
2022-09-21T00:00:25.942Z,101894.53
2022-09-21T00:02:55.280Z,101875.28
2022-09-21T00:05:21.815Z,101845.59
2022-09-21T00:07:48.150Z,101877.06
2022-09-21T00:10:14.863Z,101909.22
2022-09-21T00:12:41.245Z,101896.16
2022-09-21T00:15:09.484Z,101910.97
2022-09-21T00:17:36.997Z,101894.38
2022-09-21T00:20:05.928Z,101896.94
2022-09-21T00:22:33.385Z,101901.34
2022-09-21T00:25:01.346Z,101884.09
2022-09-21T00:27:29.990Z,101887.66
2022-09-21T00:29:57.598Z,101897.38
2022-09-21T00:32:27.655Z,101907.06
2022-09-21T00:34:54.006Z,101867.09
2022-09-21T00:37:20.362Z,101863.66
2022-09-21T00:39:46.816Z,101919.47
2022-09-21T00:42:25.921Z,101906.31
2022-09-21T00:44:52.682Z,101908.84
2022-09-21T00:47:24.935Z,101912.31
2022-09-21T00:49:55.583Z,101914.84
2022-09-21T00:52:30.232Z,101880.75
2022-09-21T00:55:00.531Z,101856.38
2022-09-21T00:57:30.971Z,101923.44
2022-09-21T01:00:01.273Z,101920.81
2022-09-21T01:02:28.397Z,101916.56
2022-09-21T01:04:55.594Z,101886.16
2022-09-21T01:07:27.496Z,101884.38
2022-09-21T01:10:02.343Z,101807.78
2022-09-21T01:12:53.668Z,101913.94
2022-09-21T01:15:40.508Z,101915.88
2022-09-21T01:18:18.096Z,101910.69
2022-09-21T01:21:15.698Z,101891.56
2022-09-21T01:24:27.225Z,101910.66
2022-09-21T01:27:11.648Z,101911.50
2022-09-21T01:29:55.985Z,101907.97
2022-09-21T01:32:28.034Z,101919.38
2022-09-21T01:35:02.842Z,101913.34
2022-09-21T01:37:43.730Z,101877.78
2022-09-21T01:40:16.699Z,101886.56
2022-09-21T01:42:47.054Z,101878.69
2022-09-21T01:45:17.619Z,101890.00
2022-09-21T01:47:48.264Z,101906.53
2022-09-21T01:50:17.403Z,101888.19
2022-09-21T01:52:52.192Z,101908.22
2022-09-21T01:55:29.642Z,101910.88
2022-09-21T01:58:11.858Z,101905.66
2022-09-21T02:00:40.301Z,101908.19
2022-09-21T02:03:15.217Z,101896.06
2022-09-21T02:05:42.503Z,101917.03
2022-09-21T02:08:10.420Z,101888.28
2022-09-21T02:10:42.757Z,101898.66
2022-09-21T02:13:09.539Z,101908.22
2022-09-21T02:16:16.597Z,101906.50
2022-09-21T02:19:07.545Z,101896.97
2022-09-21T02:21:41.621Z,101882.13
2022-09-21T02:24:21.871Z,101896.94
2022-09-21T02:26:56.600Z,101886.47
2022-09-21T02:29:33.365Z,101892.63
2022-09-21T02:32:10.910Z,101905.69
2022-09-21T02:34:46.191Z,101904.03
2022-09-21T02:37:25.243Z,101905.75
2022-09-21T02:39:58.070Z,101898.75
2022-09-21T02:42:29.611Z,101908.31
2022-09-21T02:45:05.683Z,101894.38
2022-09-21T02:47:44.700Z,101893.56
2022-09-21T02:50:17.377Z,101905.78
2022-09-21T02:52:44.471Z,101843.03
2022-09-21T02:55:13.151Z,101870.06
2022-09-21T02:57:40.758Z,101908.41
2022-09-21T03:00:08.235Z,101881.38
2022-09-21T03:02:40.083Z,101875.25
2022-09-21T03:05:08.014Z,101898.81
2022-09-21T03:07:34.510Z,101907.53
2022-09-21T03:10:01.244Z,101897.06
2022-09-21T03:12:27.878Z,101875.28
2022-09-21T03:14:54.194Z,101881.34
2022-09-21T03:17:20.931Z,101881.38
2022-09-21T03:19:47.273Z,101873.56
2022-09-21T03:22:13.590Z,101879.69
2022-09-21T03:24:45.882Z,101897.06
2022-09-21T03:27:18.205Z,101897.09
2022-09-21T03:29:45.190Z,101857.09
2022-09-21T03:32:11.706Z,101914.59
2022-09-21T03:34:38.108Z,101905.84
2022-09-21T03:37:06.760Z,101871.00
2022-09-21T03:39:33.094Z,101905.00
2022-09-21T03:41:59.425Z,101891.94
2022-09-21T03:44:26.675Z,101918.09
2022-09-21T03:46:53.810Z,101894.56
2022-09-21T03:49:20.295Z,101920.69
2022-09-21T03:51:46.802Z,101897.19
2022-09-21T03:54:13.161Z,101888.50
2022-09-21T03:56:39.498Z,101919.91
2022-09-21T03:59:09.482Z,101877.16
2022-09-21T04:01:38.480Z,101894.63
2022-09-21T04:04:04.973Z,101920.78
2022-09-21T04:06:31.293Z,101883.28
2022-09-21T04:08:57.629Z,101921.59
2022-09-21T04:11:24.549Z,101907.69
2022-09-21T04:13:53.154Z,101915.53
2022-09-21T04:16:19.519Z,101912.94
2022-09-21T04:18:47.758Z,101930.34
2022-09-21T04:21:14.075Z,101923.34
2022-09-21T04:23:41.572Z,101920.78
2022-09-21T04:26:27.667Z,101921.66
2022-09-21T04:28:55.192Z,101926.91
2022-09-21T04:31:23.208Z,101933.00
2022-09-21T04:33:51.019Z,101931.25
2022-09-21T04:36:18.785Z,101925.13
2022-09-21T04:38:45.708Z,101879.78
2022-09-21T04:41:12.833Z,101913.81
2022-09-21T04:43:42.334Z,101932.13
2022-09-21T04:46:11.465Z,101937.34
2022-09-21T04:48:39.102Z,101935.59
2022-09-21T04:51:07.700Z,101912.94
2022-09-21T04:53:35.691Z,101935.56
2022-09-21T04:56:02.671Z,101939.06
2022-09-21T04:58:29.046Z,101946.03
2022-09-21T05:00:56.504Z,101938.19
2022-09-21T05:03:24.534Z,101922.50
2022-09-21T05:05:53.085Z,101930.38
2022-09-21T05:08:40.891Z,101889.38
2022-09-21T05:11:09.786Z,101919.03
2022-09-21T05:13:36.432Z,101956.50
2022-09-21T05:16:02.924Z,101926.00
2022-09-21T05:18:29.394Z,101928.63
2022-09-21T05:21:00.643Z,101951.28
2022-09-21T05:23:29.471Z,101919.03
2022-09-21T05:25:56.941Z,101923.41
2022-09-21T05:28:24.336Z,101960.00
2022-09-21T05:31:17.824Z,101954.75
2022-09-21T05:33:51.591Z,101939.97
2022-09-21T05:36:30.006Z,101960.03
2022-09-21T05:38:56.666Z,101943.44
2022-09-21T05:41:23.617Z,101919.91
2022-09-21T05:43:50.430Z,101979.22
2022-09-21T05:46:26.583Z,101939.97
2022-09-21T05:49:17.418Z,101978.31
2022-09-21T05:52:13.585Z,101974.84
2022-09-21T05:55:27.590Z,101984.44
2022-09-21T05:58:15.465Z,101973.09
2022-09-21T06:01:02.028Z,101972.22
2022-09-21T06:03:33.643Z,101963.50
2022-09-21T06:05:59.977Z,101972.22
2022-09-21T06:08:26.725Z,101927.75
2022-09-21T06:10:54.710Z,101974.81
2022-09-21T06:13:21.415Z,101927.72
2022-09-21T06:15:47.762Z,101989.63
2022-09-21T06:18:17.764Z,101947.75
2022-09-21T06:20:44.415Z,101964.31
2022-09-21T06:23:13.080Z,101995.72
2022-09-21T06:25:39.844Z,101975.66
2022-09-21T06:28:12.586Z,101973.94
2022-09-21T06:30:42.025Z,101991.38
2022-09-21T06:33:08.870Z,101991.34
2022-09-21T06:35:36.833Z,101996.59
2022-09-21T06:38:06.273Z,101989.59
2022-09-21T06:40:35.031Z,102002.66
2022-09-21T06:43:05.875Z,101993.06
2022-09-21T06:45:32.497Z,101991.31
2022-09-21T06:47:59.091Z,101966.91
2022-09-21T06:50:25.679Z,101911.03
2022-09-21T06:52:52.018Z,101968.63
2022-09-21T06:55:18.357Z,101975.59
2022-09-21T06:57:44.866Z,102004.34
2022-09-21T07:00:12.899Z,101992.97
2022-09-21T07:02:43.441Z,101975.50
2022-09-21T07:05:09.798Z,102004.28
2022-09-21T07:07:36.403Z,102002.53
2022-09-21T07:10:05.859Z,102008.59
2022-09-21T07:12:34.574Z,101966.78
2022-09-21T07:15:02.248Z,102009.47
2022-09-21T07:17:33.152Z,101996.38
2022-09-21T07:20:00.196Z,101972.78
2022-09-21T07:22:28.822Z,101957.91
2022-09-21T07:24:55.251Z,101988.38
2022-09-21T07:27:21.819Z,102011.84
2022-09-21T07:29:48.114Z,101886.34
2022-09-21T07:32:14.548Z,102009.09
2022-09-21T07:34:40.889Z,101994.22
2022-09-21T07:37:07.180Z,101993.28
2022-09-21T07:39:33.504Z,101994.06
2022-09-21T07:41:59.819Z,101970.50
2022-09-21T07:44:26.552Z,101966.03
2022-09-21T07:46:52.978Z,101972.91
2022-09-21T07:49:19.409Z,101970.22
2022-09-21T07:51:45.949Z,101979.66
2022-09-21T07:54:12.694Z,101966.59
2022-09-21T07:56:39.537Z,101970.94
2022-09-21T07:59:05.914Z,101998.84
2022-09-21T08:01:34.781Z,101968.28
2022-09-21T08:04:01.809Z,101979.44
2022-09-21T08:06:30.877Z,101996.72
2022-09-21T08:08:58.288Z,101978.31
2022-09-21T08:11:26.225Z,101976.50
2022-09-21T08:13:54.068Z,101995.50
2022-09-21T08:16:20.905Z,101992.78
2022-09-21T08:18:47.355Z,101968.38
2022-09-21T08:21:13.854Z,101954.41
2022-09-21T08:23:40.453Z,101980.38
2022-09-21T08:26:07.617Z,101982.81
2022-09-21T08:28:36.139Z,101995.81
2022-09-21T08:31:08.552Z,102010.59
2022-09-21T08:33:35.501Z,102003.41
2022-09-21T08:36:03.164Z,101987.63
2022-09-21T08:38:34.717Z,102005.88
2022-09-21T08:41:03.003Z,101996.38
2022-09-21T08:43:36.669Z,102008.41
2022-09-21T08:46:28.201Z,101981.13
2022-09-21T08:49:07.023Z,102006.94
2022-09-21T08:51:36.888Z,101987.66
2022-09-21T08:54:20.288Z,101972.88
2022-09-21T08:57:04.420Z,101984.91
2022-09-21T08:59:31.623Z,101997.78
2022-09-21T09:02:06.104Z,101980.22
2022-09-21T09:04:55.519Z,101977.44
2022-09-21T09:07:59.486Z,102000.56
2022-09-21T09:10:39.107Z,101995.09
2022-09-21T09:13:20.854Z,102003.56
2022-09-21T09:15:59.511Z,102004.22
2022-09-21T09:18:34.181Z,101996.88
2022-09-21T09:21:29.616Z,102007.97
2022-09-21T09:24:04.022Z,101979.13
2022-09-21T09:26:39.793Z,102003.13
2022-09-21T09:29:18.953Z,102005.56
2022-09-21T09:31:46.533Z,101984.50
2022-09-21T09:34:18.233Z,102006.03
2022-09-21T09:36:59.143Z,101995.44
2022-09-21T09:39:29.482Z,101994.28
2022-09-21T09:42:08.349Z,102014.94
2022-09-21T09:45:12.499Z,102009.34
2022-09-21T09:47:58.001Z,102008.28
2022-09-21T09:50:30.130Z,101996.63
2022-09-21T09:53:05.026Z,101993.78
2022-09-21T09:55:43.622Z,102004.75
2022-09-21T09:58:33.184Z,101981.97
2022-09-21T10:00:59.582Z,102002.78
2022-09-21T10:03:27.731Z,101993.72
2022-09-21T10:05:54.699Z,101985.78
2022-09-21T10:08:36.264Z,102011.59
2022-09-21T10:11:03.958Z,102000.78
2022-09-21T10:13:33.297Z,102003.06
2022-09-21T10:15:59.671Z,101999.22
2022-09-21T10:18:38.902Z,101993.91
2022-09-21T10:21:08.821Z,101974.47
2022-09-21T10:23:37.162Z,101977.84
2022-09-21T10:26:12.479Z,101980.06
2022-09-21T10:28:55.763Z,102002.66
2022-09-21T10:31:24.120Z,101975.06
2022-09-21T10:34:03.724Z,101953.94
2022-09-21T10:36:35.560Z,101990.72
2022-09-21T10:39:22.349Z,101991.06
2022-09-21T10:42:12.842Z,101993.34
2022-09-21T10:44:42.144Z,101988.50
2022-09-21T10:47:28.268Z,101982.19
2022-09-21T10:49:57.738Z,101988.06
2022-09-21T10:52:31.931Z,101970.41
2022-09-21T10:54:58.626Z,101964.88
2022-09-21T10:57:28.171Z,101954.31
2022-09-21T10:59:54.879Z,101965.41
2022-09-21T11:02:31.165Z,101985.44
2022-09-21T11:05:00.518Z,101973.34
2022-09-21T11:07:49.609Z,101986.28
2022-09-21T11:10:21.650Z,101984.84
2022-09-21T11:13:06.811Z,101983.13
2022-09-21T11:15:56.723Z,101991.31
2022-09-21T11:18:44.833Z,101986.69
2022-09-21T11:21:31.990Z,101980.91
2022-09-21T11:24:12.701Z,101958.34
2022-09-21T11:26:56.034Z,101981.66
2022-09-21T11:29:30.919Z,101944.41
2022-09-21T11:32:22.151Z,101973.50
2022-09-21T11:35:20.654Z,101968.44
2022-09-21T11:38:11.783Z,101966.56
2022-09-21T11:40:42.680Z,101923.53
2022-09-21T11:43:26.901Z,101934.31
2022-09-21T11:46:30.259Z,101922.13
2022-09-21T11:49:12.485Z,101950.88
2022-09-21T11:51:55.933Z,101939.94
2022-09-21T11:54:46.868Z,101955.34
2022-09-21T11:57:28.669Z,101944.81
2022-09-21T12:00:16.311Z,101933.53
2022-09-21T12:03:09.218Z,101923.91
2022-09-21T12:06:03.595Z,101924.88
2022-09-21T12:08:42.248Z,101911.50
2022-09-21T12:11:31.856Z,101932.44
2022-09-21T12:14:11.480Z,101910.56
2022-09-21T12:16:56.883Z,101927.84
2022-09-21T12:19:33.768Z,101925.03
2022-09-21T12:22:14.220Z,101913.16
2022-09-21T12:24:50.792Z,101917.75
2022-09-21T12:28:02.950Z,101914.66
2022-09-21T12:30:32.349Z,101895.50
2022-09-21T12:33:01.560Z,101914.88
2022-09-21T12:35:39.392Z,101921.44
2022-09-21T12:38:29.019Z,101918.63
2022-09-21T12:41:06.825Z,101914.06
2022-09-21T12:43:53.449Z,101886.94
2022-09-21T12:46:22.190Z,101911.44
2022-09-21T12:48:49.091Z,101918.00
2022-09-21T12:51:32.687Z,101914.28
2022-09-21T12:54:06.316Z,101908.72
2022-09-21T12:56:49.842Z,101906.75
2022-09-21T12:59:43.858Z,101876.09
2022-09-21T13:02:19.250Z,101897.94
2022-09-21T13:05:07.163Z,101879.38
2022-09-21T13:07:55.266Z,101859.97
2022-09-21T13:10:28.046Z,101887.09
2022-09-21T13:12:59.960Z,101879.72
2022-09-21T13:15:30.245Z,101851.28
2022-09-21T13:18:01.662Z,101874.97
2022-09-21T13:20:34.559Z,101877.50
2022-09-21T13:23:02.339Z,101855.59
2022-09-21T13:25:32.494Z,101847.91
2022-09-21T13:28:14.919Z,101881.13
2022-09-21T13:31:37.051Z,101870.13
2022-09-21T13:34:20.997Z,101874.69
2022-09-21T13:37:16.763Z,101874.94
2022-09-21T13:39:44.369Z,101864.22
2022-09-21T13:42:29.380Z,101868.66
2022-09-21T13:45:00.547Z,101876.41
2022-09-21T13:47:33.151Z,101844.53
2022-09-21T13:50:12.559Z,101862.84
2022-09-21T13:52:45.741Z,101853.16
2022-09-21T13:55:27.783Z,101831.75
2022-09-21T13:57:55.954Z,101858.94
2022-09-21T14:00:22.330Z,101857.69
2022-09-21T14:02:48.982Z,101846.41
2022-09-21T14:05:40.609Z,101834.41
2022-09-21T14:08:15.939Z,101831.03
2022-09-21T14:10:56.704Z,101836.66
2022-09-21T14:13:31.969Z,101844.38
2022-09-21T14:16:29.070Z,101847.84
2022-09-21T14:18:56.251Z,101831.97
2022-09-21T14:21:22.894Z,101846.34
2022-09-21T14:24:08.048Z,101840.31
2022-09-21T14:26:46.110Z,101835.44
2022-09-21T14:29:21.684Z,101831.97
2022-09-21T14:31:52.132Z,101809.28
2022-09-21T14:34:25.189Z,101817.22
2022-09-21T14:36:55.930Z,101810.00
2022-09-21T14:39:25.313Z,101799.75
2022-09-21T14:41:54.755Z,101811.75
2022-09-21T14:44:25.588Z,101825.97
2022-09-21T14:47:22.535Z,101822.03
2022-09-21T14:50:14.991Z,101812.50
2022-09-21T14:52:56.018Z,101812.25
2022-09-21T14:55:40.604Z,101808.13
2022-09-21T14:58:33.948Z,101812.16
2022-09-21T15:01:35.722Z,101811.69
2022-09-21T15:04:31.258Z,101806.50
2022-09-21T15:07:34.940Z,101801.63
2022-09-21T15:10:32.074Z,101805.81
2022-09-21T15:13:08.258Z,101766.53
2022-09-21T15:15:42.399Z,101775.72
2022-09-21T15:18:21.311Z,101798.03
2022-09-21T15:21:01.724Z,101797.00
2022-09-21T15:23:40.856Z,101782.09
2022-09-21T15:26:19.135Z,101787.06
2022-09-21T15:29:08.769Z,101782.09
2022-09-21T15:31:38.676Z,101795.69
2022-09-21T15:34:06.625Z,101783.13
2022-09-21T15:36:37.609Z,101783.13
2022-09-21T15:39:04.599Z,101778.25
2022-09-21T15:41:45.413Z,101788.59
2022-09-21T15:44:16.510Z,101786.91
2022-09-21T15:46:47.276Z,101769.31
2022-09-21T15:49:21.236Z,101781.50
2022-09-21T15:51:56.471Z,101762.75
2022-09-21T15:54:40.021Z,101754.06
2022-09-21T15:57:25.221Z,101741.09
2022-09-21T15:59:53.366Z,101775.63
2022-09-21T16:02:25.135Z,101767.59
2022-09-21T16:04:52.552Z,101783.66
2022-09-21T16:07:30.579Z,101756.56
2022-09-21T16:09:57.143Z,101759.91
2022-09-21T16:12:26.372Z,101775.47
2022-09-21T16:14:53.857Z,101782.66
2022-09-21T16:17:26.302Z,101781.75
2022-09-21T16:19:56.144Z,101782.16
2022-09-21T16:22:39.153Z,101780.13
2022-09-21T16:25:23.005Z,101768.22
2022-09-21T16:27:54.225Z,101755.72
2022-09-21T16:30:41.442Z,101765.28
2022-09-21T16:33:34.540Z,101772.44
2022-09-21T16:36:02.566Z,101770.63
2022-09-21T16:38:28.856Z,101753.97
2022-09-21T16:40:56.624Z,101755.16
2022-09-21T16:43:24.177Z,101787.28
2022-09-21T16:45:50.490Z,101773.44
2022-09-21T16:48:16.785Z,101777.06
2022-09-21T16:50:43.106Z,101774.00
2022-09-21T16:53:09.462Z,101778.84
2022-09-21T16:55:35.782Z,101729.94
2022-09-21T16:58:02.074Z,101785.38
2022-09-21T17:00:40.018Z,101765.06
2022-09-21T17:03:06.447Z,101774.25
2022-09-21T17:05:32.772Z,101769.78
2022-09-21T17:07:59.639Z,101787.47
2022-09-21T17:10:34.501Z,101772.28
2022-09-21T17:13:00.804Z,101791.13
2022-09-21T17:15:28.414Z,101761.00
2022-09-21T17:17:54.733Z,101777.22
2022-09-21T17:20:35.602Z,101770.31
2022-09-21T17:23:03.131Z,101779.34
2022-09-21T17:25:33.184Z,101781.22
2022-09-21T17:28:00.985Z,101776.53
2022-09-21T17:30:28.134Z,101772.25
2022-09-21T17:32:55.364Z,101789.84
2022-09-21T17:35:32.743Z,101760.13
2022-09-21T17:37:59.853Z,101788.53
2022-09-21T17:40:27.184Z,101788.41
2022-09-21T17:43:05.007Z,101798.53
2022-09-21T17:45:46.738Z,101787.38
2022-09-21T17:48:18.912Z,101795.03
2022-09-21T17:50:45.475Z,101779.88
2022-09-21T17:53:30.817Z,101781.97
2022-09-21T17:55:59.210Z,101799.97
2022-09-21T17:58:43.167Z,101787.50
2022-09-21T18:01:29.875Z,101797.78
2022-09-21T18:03:57.469Z,101795.56
2022-09-21T18:06:24.336Z,101769.31
2022-09-21T18:08:50.910Z,101794.78
2022-09-21T18:11:39.121Z,101797.78
2022-09-21T18:14:14.957Z,101796.09
2022-09-21T18:17:16.573Z,101803.53
2022-09-21T18:19:51.584Z,101774.50
2022-09-21T18:22:31.442Z,101797.28
2022-09-21T18:24:58.213Z,101799.50
2022-09-21T18:27:24.841Z,101797.09
2022-09-21T18:29:51.543Z,101798.91
2022-09-21T18:32:53.338Z,101808.44
2022-09-21T18:35:45.320Z,101808.53
2022-09-21T18:38:27.048Z,101789.09
2022-09-21T18:41:20.249Z,101812.63
2022-09-21T18:44:14.535Z,101801.06
2022-09-21T18:47:03.507Z,101793.03
2022-09-21T18:49:47.754Z,101786.00
2022-09-21T18:52:35.770Z,101795.97
2022-09-21T18:55:11.406Z,101790.81
2022-09-21T18:57:37.994Z,101792.91
2022-09-21T19:00:05.418Z,101786.22
2022-09-21T19:02:32.003Z,101800.38
2022-09-21T19:04:59.052Z,101811.66
2022-09-21T19:07:39.603Z,101770.31
2022-09-21T19:10:28.061Z,101814.50
2022-09-21T19:12:54.759Z,101818.25
2022-09-21T19:15:59.847Z,101786.28
2022-09-21T19:18:48.983Z,101806.84
2022-09-21T19:21:31.464Z,101819.13
2022-09-21T19:24:25.518Z,101819.94
2022-09-21T19:26:55.820Z,101821.50
2022-09-21T19:29:28.223Z,101828.63
2022-09-21T19:31:54.960Z,101796.63
2022-09-21T19:34:21.398Z,101783.84
2022-09-21T19:36:47.792Z,101824.50
2022-09-21T19:39:15.008Z,101814.22
2022-09-21T19:41:50.774Z,101794.41
2022-09-21T19:44:29.645Z,101830.75
2022-09-21T19:46:59.246Z,101813.34
2022-09-21T19:49:35.847Z,101792.97
2022-09-21T19:52:04.518Z,101806.88
2022-09-21T19:54:49.664Z,101829.41
2022-09-21T19:57:36.342Z,101823.25
2022-09-21T20:00:08.575Z,101804.44
2022-09-21T20:02:41.499Z,101824.53
2022-09-21T20:05:23.119Z,101815.84
2022-09-21T20:07:58.106Z,101825.50
2022-09-21T20:10:45.981Z,101819.47
2022-09-21T20:14:00.113Z,101831.00
2022-09-21T20:16:32.426Z,101818.06
2022-09-21T20:19:14.413Z,101795.50
2022-09-21T20:21:43.575Z,101827.75
2022-09-21T20:24:19.732Z,101800.09
2022-09-21T20:26:49.998Z,101817.66
2022-09-21T20:29:17.165Z,101789.03
2022-09-21T20:31:44.063Z,101799.66
2022-09-21T20:34:12.095Z,101811.81
2022-09-21T20:36:38.402Z,101803.13
2022-09-21T20:39:04.883Z,101787.75
2022-09-21T20:41:31.308Z,101782.53
2022-09-21T20:43:59.141Z,101804.34
2022-09-21T20:46:26.001Z,101772.28
2022-09-21T20:49:05.197Z,101813.81
2022-09-21T20:51:33.934Z,101825.63
2022-09-21T20:54:04.638Z,101822.09
2022-09-21T20:56:31.313Z,101770.78
2022-09-21T20:58:57.769Z,101796.88
2022-09-21T21:01:24.765Z,101781.38
2022-09-21T21:03:51.366Z,101796.38
2022-09-21T21:06:18.625Z,101790.50
2022-09-21T21:08:45.377Z,101816.72
2022-09-21T21:11:11.968Z,101819.50
2022-09-21T21:13:38.290Z,101815.97
2022-09-21T21:16:08.241Z,101804.81
2022-09-21T21:18:41.605Z,101813.34
2022-09-21T21:21:08.068Z,101798.66
2022-09-21T21:23:54.364Z,101796.00
2022-09-21T21:26:20.866Z,101797.88
2022-09-21T21:28:47.413Z,101813.56
2022-09-21T21:31:19.411Z,101775.41
2022-09-21T21:33:47.778Z,101779.78
2022-09-21T21:36:14.934Z,101786.16
2022-09-21T21:38:43.058Z,101814.66
2022-09-21T21:41:12.598Z,101789.75
2022-09-21T21:43:40.216Z,101797.59
2022-09-21T21:46:10.654Z,101793.22
2022-09-21T21:48:38.596Z,101808.03
2022-09-21T21:51:06.667Z,101810.75
2022-09-21T21:53:35.873Z,101770.72
2022-09-21T21:56:05.373Z,101806.41
2022-09-21T21:58:33.065Z,101762.09
2022-09-21T22:01:14.929Z,101794.19
2022-09-21T22:03:42.037Z,101791.72
2022-09-21T22:06:10.005Z,101799.63
2022-09-21T22:08:38.156Z,101776.34
2022-09-21T22:11:05.766Z,101798.84
2022-09-21T22:13:38.254Z,101797.16
2022-09-21T22:16:16.162Z,101779.97
2022-09-21T22:18:43.929Z,101785.19
2022-09-21T22:21:16.697Z,101801.72
2022-09-21T22:23:43.863Z,101785.13
2022-09-21T22:26:15.709Z,101799.25
2022-09-21T22:28:53.349Z,101717.63
2022-09-21T22:31:23.099Z,101773.31
2022-09-21T22:33:49.476Z,101797.56
2022-09-21T22:36:21.567Z,101802.88
2022-09-21T22:38:49.331Z,101736.97
2022-09-21T22:41:18.165Z,101790.00
2022-09-21T22:43:48.549Z,101800.41
2022-09-21T22:46:17.492Z,101771.88
2022-09-21T22:48:44.620Z,101771.00
2022-09-21T22:51:12.254Z,101807.63
2022-09-21T22:53:38.896Z,101766.88
2022-09-21T22:56:06.908Z,101795.59
2022-09-21T22:58:35.019Z,101801.72
2022-09-21T23:01:15.647Z,101798.22
2022-09-21T23:03:42.601Z,101770.41
2022-09-21T23:06:11.500Z,101790.47
2022-09-21T23:08:38.883Z,101785.34
2022-09-21T23:11:22.176Z,101784.59
2022-09-21T23:13:49.294Z,101794.03
2022-09-21T23:16:16.656Z,101784.47
2022-09-21T23:18:43.888Z,101768.91
2022-09-21T23:21:13.243Z,101789.78
2022-09-21T23:23:40.174Z,101791.63
2022-09-21T23:26:16.717Z,101758.72
2022-09-21T23:28:45.623Z,101782.31
2022-09-21T23:31:14.695Z,101748.38
2022-09-21T23:33:46.982Z,101781.41
2022-09-21T23:36:16.344Z,101780.56
2022-09-21T23:38:43.193Z,101774.47
2022-09-21T23:41:13.800Z,101784.13
2022-09-21T23:43:41.893Z,101776.31
2022-09-21T23:46:10.902Z,101760.66
2022-09-21T23:48:38.205Z,101729.38
2022-09-21T23:51:05.204Z,101777.19
2022-09-21T23:53:31.834Z,101762.53
2022-09-21T23:55:58.677Z,101738.09
2022-09-21T23:58:26.015Z,101778.97
